Bixby, Nebraska
Current Conditions -  °F | °C
As of 8:35 PM on Friday 28 Nov 2014 (Local Time) from KAUH Reporting Station
Clear Clear  
Wind Chill: 39°   Ceiling: Unl
Heat Index: 42°   Visibility: 10mi
Dew Point: 26°   Wind: 6mph
Humidity: 51%   Direction: 250°WSW
Pressure: 29.63"   Gusts: NA
Location:  40.6539°N, 97.8811°W
Report Text: KAUH 290235Z AUTO 25005KT 10SM CLR 06/M04 A2963 RMK AO2 T00581036
Loading
Personal Weather Stations






























Interactive Weather Map New forecast layout! Learn more

10-Day Weather Forecast

Advertisements
Track Severe Weather on mobile